sensor_id;sensor_type;location;lat;lon;timestamp;pressure;altitude;pressure_sealevel;temperature;humidity
70921;BME280;58572;48.110;19.838;2023-01-16T00:02:12;96945.91;;;4.14;79.54
70921;BME280;58572;48.110;19.838;2023-01-16T00:04:39;97068.25;;;4.69;80.31
70921;BME280;58572;48.110;19.838;2023-01-16T00:07:06;96959.09;;;4.10;79.55
70921;BME280;58572;48.110;19.838;2023-01-16T00:09:33;97073.66;;;4.89;79.31
70921;BME280;58572;48.110;19.838;2023-01-16T00:12:02;97074.53;;;5.30;77.60
70921;BME280;58572;48.110;19.838;2023-01-16T00:14:30;96996.88;;;4.51;78.14
70921;BME280;58572;48.110;19.838;2023-01-16T00:16:57;97055.38;;;4.91;79.22
70921;BME280;58572;48.110;19.838;2023-01-16T00:19:24;96998.22;;;4.48;78.99
70921;BME280;58572;48.110;19.838;2023-01-16T00:21:51;97051.06;;;5.05;78.65
70921;BME280;58572;48.110;19.838;2023-01-16T00:24:18;97048.09;;;4.97;78.94
70921;BME280;58572;48.110;19.838;2023-01-16T00:26:45;96962.16;;;4.39;78.21
70921;BME280;58572;48.110;19.838;2023-01-16T00:29:17;96959.97;;;4.31;79.05
70921;BME280;58572;48.110;19.838;2023-01-16T00:31:45;97049.16;;;4.96;78.79
70921;BME280;58572;48.110;19.838;2023-01-16T00:34:12;96952.97;;;4.25;78.65
70921;BME280;58572;48.110;19.838;2023-01-16T00:36:39;97049.97;;;4.91;78.80
70921;BME280;58572;48.110;19.838;2023-01-16T00:39:06;97048.34;;;4.80;79.11
70921;BME280;58572;48.110;19.838;2023-01-16T00:41:34;96952.97;;;4.25;77.25
70921;BME280;58572;48.110;19.838;2023-01-16T00:44:01;97045.09;;;4.68;79.44
70921;BME280;58572;48.110;19.838;2023-01-16T00:46:30;97030.03;;;4.77;79.38
70921;BME280;58572;48.110;19.838;2023-01-16T00:48:57;97025.78;;;5.22;76.77
70921;BME280;58572;48.110;19.838;2023-01-16T00:51:24;96993.94;;;4.63;78.04
70921;BME280;58572;48.110;19.838;2023-01-16T00:53:51;96958.94;;;4.47;78.67
70921;BME280;58572;48.110;19.838;2023-01-16T00:56:18;97023.34;;;4.07;79.59
70921;BME280;58572;48.110;19.838;2023-01-16T00:58:45;97021.38;;;4.55;80.78
70921;BME280;58572;48.110;19.838;2023-01-16T01:01:12;97017.34;;;4.52;80.18
70921;BME280;58572;48.110;19.838;2023-01-16T01:03:41;97018.53;;;4.14;79.06
70921;BME280;58572;48.110;19.838;2023-01-16T01:06:10;97012.34;;;3.56;81.97
70921;BME280;58572;48.110;19.838;2023-01-16T01:08:38;96806.72;;;2.07;83.11
70921;BME280;58572;48.110;19.838;2023-01-16T01:11:06;97003.09;;;3.37;84.37
70921;BME280;58572;48.110;19.838;2023-01-16T01:13:34;96890.34;;;2.63;84.32
70921;BME280;58572;48.110;19.838;2023-01-16T01:16:01;97002.69;;;3.60;83.37
70921;BME280;58572;48.110;19.838;2023-01-16T01:18:28;97010.31;;;3.31;84.25
70921;BME280;58572;48.110;19.838;2023-01-16T01:20:57;97009.75;;;3.71;83.41
70921;BME280;58572;48.110;19.838;2023-01-16T01:23:24;97020.25;;;3.78;82.67
70921;BME280;58572;48.110;19.838;2023-01-16T01:25:51;97020.56;;;3.81;81.73
70921;BME280;58572;48.110;19.838;2023-01-16T01:28:19;97018.78;;;4.07;81.31
70921;BME280;58572;48.110;19.838;2023-01-16T01:30:46;97018.03;;;4.17;81.03
70921;BME280;58572;48.110;19.838;2023-01-16T01:33:13;97010.66;;;4.85;78.14
70921;BME280;58572;48.110;19.838;2023-01-16T01:35:40;97013.34;;;4.75;78.41
70921;BME280;58572;48.110;19.838;2023-01-16T01:38:09;97026.53;;;4.76;78.75
70921;BME280;58572;48.110;19.838;2023-01-16T01:40:36;97025.72;;;4.76;78.79
70921;BME280;58572;48.110;19.838;2023-01-16T01:43:10;96965.88;;;4.18;79.63
70921;BME280;58572;48.110;19.838;2023-01-16T01:45:39;97029.50;;;4.80;78.74
70921;BME280;58572;48.110;19.838;2023-01-16T01:48:18;97030.03;;;4.72;78.42
70921;BME280;58572;48.110;19.838;2023-01-16T01:50:53;97027.34;;;4.87;78.25
70921;BME280;58572;48.110;19.838;2023-01-16T01:53:29;97028.69;;;4.74;77.62
70921;BME280;58572;48.110;19.838;2023-01-16T01:56:00;97034.56;;;4.51;79.60
70921;BME280;58572;48.110;19.838;2023-01-16T01:58:30;97027.06;;;4.78;78.51
70921;BME280;58572;48.110;19.838;2023-01-16T02:00:59;97027.59;;;4.65;79.16
70921;BME280;58572;48.110;19.838;2023-01-16T02:03:30;97022.47;;;4.64;79.47
70921;BME280;58572;48.110;19.838;2023-01-16T02:06:01;97015.22;;;4.90;77.94
70921;BME280;58572;48.110;19.838;2023-01-16T02:08:32;97009.59;;;4.96;77.81
70921;BME280;58572;48.110;19.838;2023-01-16T02:11:03;97007.69;;;4.71;78.57
70921;BME280;58572;48.110;19.838;2023-01-16T02:13:31;97003.09;;;4.72;78.68
70921;BME280;58572;48.110;19.838;2023-01-16T02:15:58;97005.25;;;4.80;78.45
70921;BME280;58572;48.110;19.838;2023-01-16T02:18:42;96988.53;;;4.42;79.54
70921;BME280;58572;48.110;19.838;2023-01-16T02:21:54;96986.91;;;4.46;79.57
70921;BME280;58572;48.110;19.838;2023-01-16T02:24:55;96996.66;;;4.78;78.64
70921;BME280;58572;48.110;19.838;2023-01-16T02:27:57;97000.34;;;4.41;80.07
70921;BME280;58572;48.110;19.838;2023-01-16T02:33:31;96981.81;;;4.65;78.80
70921;BME280;58572;48.110;19.838;2023-01-16T02:36:08;96983.19;;;4.78;78.64
70921;BME280;58572;48.110;19.838;2023-01-16T02:38:46;96998.78;;;4.71;78.76
70921;BME280;58572;48.110;19.838;2023-01-16T02:41:28;96887.75;;;3.88;79.21
70921;BME280;58572;48.110;19.838;2023-01-16T02:44:11;96983.94;;;4.48;79.64
70921;BME280;58572;48.110;19.838;2023-01-16T02:46:46;96972.66;;;4.61;79.20
70921;BME280;58572;48.110;19.838;2023-01-16T02:49:20;96960.03;;;4.62;78.91
70921;BME280;58572;48.110;19.838;2023-01-16T02:51:56;96956.22;;;4.32;79.82
70921;BME280;58572;48.110;19.838;2023-01-16T02:54:27;96938.72;;;4.25;80.02
70921;BME280;58572;48.110;19.838;2023-01-16T02:57:03;96948.72;;;4.55;79.65
70921;BME280;58572;48.110;19.838;2023-01-16T02:59:31;96935.78;;;4.77;78.64
70921;BME280;58572;48.110;19.838;2023-01-16T03:02:01;96936.00;;;4.20;79.37
70921;BME280;58572;48.110;19.838;2023-01-16T03:04:52;96947.91;;;3.66;82.57
70921;BME280;58572;48.110;19.838;2023-01-16T03:07:38;96937.25;;;3.97;82.07
70921;BME280;58572;48.110;19.838;2023-01-16T03:10:21;96908.69;;;3.75;81.39
70921;BME280;58572;48.110;19.838;2023-01-16T03:12:58;96943.91;;;3.74;82.41
70921;BME280;58572;48.110;19.838;2023-01-16T03:15:34;96865.75;;;4.06;79.82
70921;BME280;58572;48.110;19.838;2023-01-16T03:18:09;96919.09;;;4.55;78.55
70921;BME280;58572;48.110;19.838;2023-01-16T03:20:49;96942.25;;;4.61;78.78
70921;BME280;58572;48.110;19.838;2023-01-16T03:23:24;96914.38;;;3.89;80.96
70921;BME280;58572;48.110;19.838;2023-01-16T03:26:00;96930.13;;;4.43;79.55
70921;BME280;58572;48.110;19.838;2023-01-16T03:28:33;96937.66;;;3.58;81.42
70921;BME280;58572;48.110;19.838;2023-01-16T03:31:08;96978.94;;;3.99;81.50
70921;BME280;58572;48.110;19.838;2023-01-16T03:33:43;96961.09;;;4.66;78.83
70921;BME280;58572;48.110;19.838;2023-01-16T03:36:21;96907.41;;;3.98;79.42
70921;BME280;58572;48.110;19.838;2023-01-16T03:38:51;96888.31;;;3.95;79.76
70921;BME280;58572;48.110;19.838;2023-01-16T03:41:23;96842.88;;;3.88;79.36
70921;BME280;58572;48.110;19.838;2023-01-16T03:43:56;96916.94;;;4.57;78.32
70921;BME280;58572;48.110;19.838;2023-01-16T03:46:26;96933.09;;;4.82;78.25
70921;BME280;58572;48.110;19.838;2023-01-16T03:48:58;96809.25;;;3.80;78.86
70921;BME280;58572;48.110;19.838;2023-01-16T03:51:28;96930.41;;;4.57;78.67
70921;BME280;58572;48.110;19.838;2023-01-16T03:54:00;96939.53;;;4.35;79.61
70921;BME280;58572;48.110;19.838;2023-01-16T03:56:32;96936.31;;;4.54;79.44
70921;BME280;58572;48.110;19.838;2023-01-16T03:59:01;96939.84;;;4.90;78.14
70921;BME280;58572;48.110;19.838;2023-01-16T04:01:35;96935.78;;;4.77;78.17
70921;BME280;58572;48.110;19.838;2023-01-16T04:04:06;96935.25;;;4.80;78.15
70921;BME280;58572;48.110;19.838;2023-01-16T04:06:42;96882.50;;;4.48;78.51
70921;BME280;58572;48.110;19.838;2023-01-16T04:09:16;96857.19;;;4.29;79.07
70921;BME280;58572;48.110;19.838;2023-01-16T04:11:46;96846.72;;;4.38;78.33
70921;BME280;58572;48.110;19.838;2023-01-16T04:14:18;96908.88;;;4.41;79.12
70921;BME280;58572;48.110;19.838;2023-01-16T04:16:48;96870.38;;;4.56;78.34
70921;BME280;58572;48.110;19.838;2023-01-16T04:19:17;96856.13;;;4.40;79.14
70921;BME280;58572;48.110;19.838;2023-01-16T04:21:47;96880.88;;;4.73;78.62
70921;BME280;58572;48.110;19.838;2023-01-16T04:24:15;96878.47;;;4.61;78.95
70921;BME280;58572;48.110;19.838;2023-01-16T04:26:43;96866.31;;;4.84;78.35
70921;BME280;58572;48.110;19.838;2023-01-16T04:29:10;96850.69;;;4.86;77.93
70921;BME280;58572;48.110;19.838;2023-01-16T04:31:37;96847.19;;;4.86;78.05
70921;BME280;58572;48.110;19.838;2023-01-16T04:34:05;96850.13;;;5.09;77.29
70921;BME280;58572;48.110;19.838;2023-01-16T04:36:32;96801.75;;;4.54;77.40
70921;BME280;58572;48.110;19.838;2023-01-16T04:39:00;96845.59;;;4.74;78.52
70921;BME280;58572;48.110;19.838;2023-01-16T04:41:28;96852.34;;;4.67;78.79
70921;BME280;58572;48.110;19.838;2023-01-16T04:44:09;96843.72;;;4.70;78.56
70921;BME280;58572;48.110;19.838;2023-01-16T04:46:36;96842.91;;;4.69;78.53
70921;BME280;58572;48.110;19.838;2023-01-16T04:49:04;96787.25;;;4.24;78.79
70921;BME280;58572;48.110;19.838;2023-01-16T04:51:32;96844.81;;;4.59;79.24
70921;BME280;58572;48.110;19.838;2023-01-16T04:54:01;96805.78;;;4.56;78.39
70921;BME280;58572;48.110;19.838;2023-01-16T04:56:29;96832.16;;;4.69;78.28
70921;BME280;58572;48.110;19.838;2023-01-16T04:58:57;96825.66;;;4.91;77.99
70921;BME280;58572;48.110;19.838;2023-01-16T05:01:24;96764.13;;;4.38;78.02
70921;BME280;58572;48.110;19.838;2023-01-16T05:03:52;96839.19;;;4.45;79.11
70921;BME280;58572;48.110;19.838;2023-01-16T05:06:19;96750.66;;;4.13;78.57
70921;BME280;58572;48.110;19.838;2023-01-16T05:08:46;96833.47;;;4.82;77.94
70921;BME280;58572;48.110;19.838;2023-01-16T05:11:15;96815.19;;;4.79;78.19
70921;BME280;58572;48.110;19.838;2023-01-16T05:13:42;96823.28;;;4.48;78.81
70921;BME280;58572;48.110;19.838;2023-01-16T05:16:09;96812.00;;;4.57;79.40
70921;BME280;58572;48.110;19.838;2023-01-16T05:18:36;96788.28;;;4.64;77.93
70921;BME280;58572;48.110;19.838;2023-01-16T05:21:04;96557.72;;;3.08;78.45
70921;BME280;58572;48.110;19.838;2023-01-16T05:23:31;96816.28;;;4.58;79.12
70921;BME280;58572;48.110;19.838;2023-01-16T05:26:01;96806.81;;;4.91;77.99
70921;BME280;58572;48.110;19.838;2023-01-16T05:28:30;96801.22;;;4.57;78.43
70921;BME280;58572;48.110;19.838;2023-01-16T05:30:58;96798.50;;;4.67;78.55
70921;BME280;58572;48.110;19.838;2023-01-16T05:33:25;96729.16;;;4.18;78.51
70921;BME280;58572;48.110;19.838;2023-01-16T05:35:53;96779.13;;;4.65;78.80
70921;BME280;58572;48.110;19.838;2023-01-16T05:38:20;96731.84;;;4.33;78.45
70921;BME280;58572;48.110;19.838;2023-01-16T05:40:48;96785.63;;;4.43;79.09
70921;BME280;58572;48.110;19.838;2023-01-16T05:43:15;96783.16;;;4.67;79.02
70921;BME280;58572;48.110;19.838;2023-01-16T05:45:44;96770.75;;;4.81;78.09
70921;BME280;58572;48.110;19.838;2023-01-16T05:48:11;96750.13;;;4.16;79.41
70921;BME280;58572;48.110;19.838;2023-01-16T05:50:38;96779.47;;;4.23;80.96
70921;BME280;58572;48.110;19.838;2023-01-16T05:53:06;96601.47;;;3.04;80.27
70921;BME280;58572;48.110;19.838;2023-01-16T05:55:39;96772.72;;;4.05;80.89
70921;BME280;58572;48.110;19.838;2023-01-16T05:58:09;96765.97;;;4.53;79.54
70921;BME280;58572;48.110;19.838;2023-01-16T06:00:36;96765.75;;;4.29;80.26
70921;BME280;58572;48.110;19.838;2023-01-16T06:03:05;96769.50;;;4.33;80.01
70921;BME280;58572;48.110;19.838;2023-01-16T06:05:33;96757.94;;;4.18;80.11
70921;BME280;58572;48.110;19.838;2023-01-16T06:08:00;96731.84;;;4.33;79.51
70921;BME280;58572;48.110;19.838;2023-01-16T06:10:28;96764.59;;;4.61;78.94
70921;BME280;58572;48.110;19.838;2023-01-16T06:12:55;96609.56;;;3.55;79.20
70921;BME280;58572;48.110;19.838;2023-01-16T06:15:23;96767.28;;;4.71;78.69
70921;BME280;58572;48.110;19.838;2023-01-16T06:17:51;96683.16;;;4.20;77.92
70921;BME280;58572;48.110;19.838;2023-01-16T06:20:21;96774.59;;;4.50;79.08
70921;BME280;58572;48.110;19.838;2023-01-16T06:22:49;96775.91;;;4.63;78.87
70921;BME280;58572;48.110;19.838;2023-01-16T06:25:16;96768.88;;;4.77;78.19
70921;BME280;58572;48.110;19.838;2023-01-16T06:27:47;96774.03;;;4.63;79.15
70921;BME280;58572;48.110;19.838;2023-01-16T06:30:15;96773.25;;;4.42;79.51
70921;BME280;58572;48.110;19.838;2023-01-16T06:32:43;96747.94;;;4.54;78.40
70921;BME280;58572;48.110;19.838;2023-01-16T06:35:10;96769.19;;;4.60;78.91
70921;BME280;58572;48.110;19.838;2023-01-16T06:37:39;96766.22;;;4.67;78.51
70921;BME280;58572;48.110;19.838;2023-01-16T06:40:08;96768.59;;;4.84;77.98
70921;BME280;58572;48.110;19.838;2023-01-16T06:42:36;96766.75;;;3.47;82.22
70921;BME280;58572;48.110;19.838;2023-01-16T06:45:03;96763.56;;;4.06;80.65
70921;BME280;58572;48.110;19.838;2023-01-16T06:47:30;96757.66;;;4.14;80.60
70921;BME280;58572;48.110;19.838;2023-01-16T06:49:58;96762.47;;;4.53;79.08
70921;BME280;58572;48.110;19.838;2023-01-16T06:52:25;96771.09;;;4.55;79.08
70921;BME280;58572;48.110;19.838;2023-01-16T06:54:54;96775.63;;;4.64;77.62
70921;BME280;58572;48.110;19.838;2023-01-16T06:57:22;96783.41;;;4.76;76.95
70921;BME280;58572;48.110;19.838;2023-01-16T06:59:49;96800.13;;;4.73;77.68
70921;BME280;58572;48.110;19.838;2023-01-16T07:02:17;96803.88;;;4.82;77.47
70921;BME280;58572;48.110;19.838;2023-01-16T07:04:44;96795.25;;;4.75;78.40
70921;BME280;58572;48.110;19.838;2023-01-16T07:07:12;96796.00;;;5.01;77.21
70921;BME280;58572;48.110;19.838;2023-01-16T07:09:39;96782.50;;;5.06;77.08
70921;BME280;58572;48.110;19.838;2023-01-16T07:12:08;96779.00;;;5.05;76.80
70921;BME280;58572;48.110;19.838;2023-01-16T07:14:36;96773.44;;;4.87;77.56
70921;BME280;58572;48.110;19.838;2023-01-16T07:17:20;96747.84;;;4.84;77.78
70921;BME280;58572;48.110;19.838;2023-01-16T07:20:05;96767.31;;;4.61;78.22
70921;BME280;58572;48.110;19.838;2023-01-16T07:22:52;96763.97;;;4.99;77.01
70921;BME280;58572;48.110;19.838;2023-01-16T07:25:26;96650.59;;;4.16;77.41
70921;BME280;58572;48.110;19.838;2023-01-16T07:28:02;96763.38;;;5.07;77.02
70921;BME280;58572;48.110;19.838;2023-01-16T07:30:29;96687.00;;;4.83;76.09
70921;BME280;58572;48.110;19.838;2023-01-16T07:32:57;96688.22;;;4.41;78.37
70921;BME280;58572;48.110;19.838;2023-01-16T07:35:24;96750.09;;;4.57;78.85
70921;BME280;58572;48.110;19.838;2023-01-16T07:37:52;96648.00;;;3.60;79.85
70921;BME280;58572;48.110;19.838;2023-01-16T07:40:22;96748.19;;;4.57;79.18
70921;BME280;58572;48.110;19.838;2023-01-16T07:42:50;96696.25;;;4.62;77.51
70921;BME280;58572;48.110;19.838;2023-01-16T07:45:19;96683.22;;;4.84;76.27
70921;BME280;58572;48.110;19.838;2023-01-16T07:47:46;96738.53;;;5.26;76.22
70921;BME280;58572;48.110;19.838;2023-01-16T07:50:14;96737.78;;;5.10;76.80
70921;BME280;58572;48.110;19.838;2023-01-16T07:52:42;96739.63;;;5.20;76.42
70921;BME280;58572;48.110;19.838;2023-01-16T07:55:09;96738.69;;;4.85;77.42
70921;BME280;58572;48.110;19.838;2023-01-16T07:57:36;96730.44;;;4.56;78.77
70921;BME280;58572;48.110;19.838;2023-01-16T08:00:06;96731.25;;;4.57;79.12
70921;BME280;58572;48.110;19.838;2023-01-16T08:02:35;96730.50;;;5.10;77.01
70921;BME280;58572;48.110;19.838;2023-01-16T08:05:03;96648.31;;;4.69;76.22
70921;BME280;58572;48.110;19.838;2023-01-16T08:07:31;96733.44;;;5.19;76.80
70921;BME280;58572;48.110;19.838;2023-01-16T08:09:58;96723.47;;;5.20;76.55
70921;BME280;58572;48.110;19.838;2023-01-16T08:12:25;96705.22;;;5.06;76.57
70921;BME280;58572;48.110;19.838;2023-01-16T08:14:53;96732.09;;;5.22;76.44
70921;BME280;58572;48.110;19.838;2023-01-16T08:17:20;96733.28;;;4.95;77.76
70921;BME280;58572;48.110;19.838;2023-01-16T08:19:49;96723.47;;;5.20;76.71
70921;BME280;58572;48.110;19.838;2023-01-16T08:22:16;96730.94;;;5.38;76.09
70921;BME280;58572;48.110;19.838;2023-01-16T08:24:44;96713.03;;;5.57;75.16
70921;BME280;58572;48.110;19.838;2023-01-16T08:27:11;96714.25;;;5.36;75.66
70921;BME280;58572;48.110;19.838;2023-01-16T08:29:38;96723.69;;;5.33;76.19
70921;BME280;58572;48.110;19.838;2023-01-16T08:32:05;96722.69;;;5.63;75.31
70921;BME280;58572;48.110;19.838;2023-01-16T08:34:32;96721.75;;;5.39;75.91
70921;BME280;58572;48.110;19.838;2023-01-16T08:37:01;96657.47;;;4.68;77.17
70921;BME280;58572;48.110;19.838;2023-01-16T08:39:30;96709.25;;;5.04;77.64
70921;BME280;58572;48.110;19.838;2023-01-16T08:41:57;96707.53;;;5.28;76.84
70921;BME280;58572;48.110;19.838;2023-01-16T08:44:41;96697.03;;;5.27;76.62
70921;BME280;58572;48.110;19.838;2023-01-16T08:47:26;96687.88;;;5.28;76.67
70921;BME280;58572;48.110;19.838;2023-01-16T08:50:12;96682.34;;;5.48;75.75
70921;BME280;58572;48.110;19.838;2023-01-16T08:52:58;96602.97;;;4.91;75.93
70921;BME280;58572;48.110;19.838;2023-01-16T08:55:25;96672.41;;;4.94;77.86
70921;BME280;58572;48.110;19.838;2023-01-16T08:57:52;96647.16;;;4.85;78.59
70921;BME280;58572;48.110;19.838;2023-01-16T09:00:22;96617.09;;;4.63;78.33
70921;BME280;58572;48.110;19.838;2023-01-16T09:02:49;96631.75;;;4.36;80.37
70921;BME280;58572;48.110;19.838;2023-01-16T09:05:17;96498.56;;;3.69;80.30
70921;BME280;58572;48.110;19.838;2023-01-16T09:07:45;96616.38;;;4.47;80.19
70921;BME280;58572;48.110;19.838;2023-01-16T09:10:14;96617.75;;;4.39;80.73
70921;BME280;58572;48.110;19.838;2023-01-16T09:12:41;96419.19;;;3.07;80.40
70921;BME280;58572;48.110;19.838;2023-01-16T09:15:25;96604.31;;;4.34;81.25
70921;BME280;58572;48.110;19.838;2023-01-16T09:17:53;96597.34;;;4.23;80.84
70921;BME280;58572;48.110;19.838;2023-01-16T09:20:20;96585.50;;;4.29;81.17
70921;BME280;58572;48.110;19.838;2023-01-16T09:22:47;96573.81;;;3.74;82.39
70921;BME280;58572;48.110;19.838;2023-01-16T09:25:16;96574.34;;;4.56;80.32
70921;BME280;58572;48.110;19.838;2023-01-16T09:27:44;96414.88;;;3.32;80.89
70921;BME280;58572;48.110;19.838;2023-01-16T09:30:13;96568.88;;;4.07;81.86
70921;BME280;58572;48.110;19.838;2023-01-16T09:32:41;96493.34;;;3.98;80.68
70921;BME280;58572;48.110;19.838;2023-01-16T09:35:10;96489.38;;;3.85;81.26
70921;BME280;58572;48.110;19.838;2023-01-16T09:37:37;96553.91;;;4.55;80.63
70921;BME280;58572;48.110;19.838;2023-01-16T09:40:09;96545.75;;;4.70;79.84
70921;BME280;58572;48.110;19.838;2023-01-16T09:42:51;96538.59;;;4.51;80.47
70921;BME280;58572;48.110;19.838;2023-01-16T09:45:38;96527.16;;;4.69;80.52
70921;BME280;58572;48.110;19.838;2023-01-16T09:48:12;96457.72;;;4.32;80.18
70921;BME280;58572;48.110;19.838;2023-01-16T09:50:44;96503.78;;;5.03;79.44
70921;BME280;58572;48.110;19.838;2023-01-16T09:53:17;96502.53;;;4.91;79.28
70921;BME280;58572;48.110;19.838;2023-01-16T09:56:07;96488.41;;;4.70;80.46
70921;BME280;58572;48.110;19.838;2023-01-16T09:59:02;96477.25;;;4.87;80.22
70921;BME280;58572;48.110;19.838;2023-01-16T10:01:36;96442.28;;;4.81;79.67
70921;BME280;58572;48.110;19.838;2023-01-16T10:04:14;96456.66;;;4.67;80.15
70921;BME280;58572;48.110;19.838;2023-01-16T10:06:50;96435.84;;;4.43;81.00
70921;BME280;58572;48.110;19.838;2023-01-16T10:09:27;96460.03;;;4.82;80.67
70921;BME280;58572;48.110;19.838;2023-01-16T10:12:01;96366.44;;;4.01;81.33
70921;BME280;58572;48.110;19.838;2023-01-16T10:14:41;96446.31;;;4.84;80.34
70921;BME280;58572;48.110;19.838;2023-01-16T10:17:20;96392.19;;;4.52;80.53
70921;BME280;58572;48.110;19.838;2023-01-16T10:20:20;96435.13;;;4.67;81.39
70921;BME280;58572;48.110;19.838;2023-01-16T10:23:00;96418.13;;;4.71;81.27
70921;BME280;58572;48.110;19.838;2023-01-16T10:25:42;96422.88;;;4.51;82.25
70921;BME280;58572;48.110;19.838;2023-01-16T10:28:22;96416.97;;;4.48;82.38
70921;BME280;58572;48.110;19.838;2023-01-16T10:30:58;96413.34;;;4.97;80.16
70921;BME280;58572;48.110;19.838;2023-01-16T10:33:30;96396.44;;;5.21;79.66
70921;BME280;58572;48.110;19.838;2023-01-16T10:36:03;96372.56;;;5.09;79.02
70921;BME280;58572;48.110;19.838;2023-01-16T10:38:33;96394.19;;;4.99;80.15
70921;BME280;58572;48.110;19.838;2023-01-16T10:41:14;96385.88;;;4.95;80.27
70921;BME280;58572;48.110;19.838;2023-01-16T10:43:57;96376.78;;;5.15;80.39
70921;BME280;58572;48.110;19.838;2023-01-16T10:46:44;96369.97;;;4.99;80.07
70921;BME280;58572;48.110;19.838;2023-01-16T10:49:28;96370.38;;;5.11;79.75
70921;BME280;58572;48.110;19.838;2023-01-16T10:51:58;96362.69;;;4.70;81.05
70921;BME280;58572;48.110;19.838;2023-01-16T10:54:27;96363.44;;;4.76;81.67
70921;BME280;58572;48.110;19.838;2023-01-16T10:56:54;96362.31;;;4.82;81.43
70921;BME280;58572;48.110;19.838;2023-01-16T10:59:29;96352.84;;;5.13;80.58
70921;BME280;58572;48.110;19.838;2023-01-16T11:02:08;96359.81;;;4.62;82.15
70921;BME280;58572;48.110;19.838;2023-01-16T11:04:39;96318.50;;;4.47;81.58
70921;BME280;58572;48.110;19.838;2023-01-16T11:07:15;96325.34;;;4.64;81.15
70921;BME280;58572;48.110;19.838;2023-01-16T11:09:43;96352.13;;;4.79;81.48
70921;BME280;58572;48.110;19.838;2023-01-16T11:12:16;96335.50;;;4.72;81.66
70921;BME280;58572;48.110;19.838;2023-01-16T11:15:13;96320.81;;;4.59;81.94
70921;BME280;58572;48.110;19.838;2023-01-16T11:17:59;96318.44;;;4.81;81.55
70921;BME280;58572;48.110;19.838;2023-01-16T11:20:44;96316.47;;;4.63;82.52
70921;BME280;58572;48.110;19.838;2023-01-16T11:23:18;96301.13;;;4.64;82.22
70921;BME280;58572;48.110;19.838;2023-01-16T11:25:48;96297.63;;;4.63;82.47
70921;BME280;58572;48.110;19.838;2023-01-16T11:28:19;96295.06;;;4.77;81.54
70921;BME280;58572;48.110;19.838;2023-01-16T11:30:48;96286.81;;;4.92;81.64
70921;BME280;58572;48.110;19.838;2023-01-16T11:33:21;96282.59;;;5.10;80.72
70921;BME280;58572;48.110;19.838;2023-01-16T11:35:54;96267.78;;;5.07;80.89
70921;BME280;58572;48.110;19.838;2023-01-16T11:38:22;96278.34;;;4.80;81.85
70921;BME280;58572;48.110;19.838;2023-01-16T11:40:50;96274.22;;;5.11;80.72
70921;BME280;58572;48.110;19.838;2023-01-16T11:43:22;96136.63;;;3.94;81.22
70921;BME280;58572;48.110;19.838;2023-01-16T11:46:30;96267.63;;;4.99;81.38
70921;BME280;58572;48.110;19.838;2023-01-16T11:49:01;96260.75;;;5.11;81.14
70921;BME280;58572;48.110;19.838;2023-01-16T11:51:30;96271.13;;;4.75;81.77
70921;BME280;58572;48.110;19.838;2023-01-16T11:53:58;96155.34;;;4.04;82.32
70921;BME280;58572;48.110;19.838;2023-01-16T11:56:43;96248.28;;;5.21;81.12
70921;BME280;58572;48.110;19.838;2023-01-16T11:59:31;96237.72;;;5.00;80.94
70921;BME280;58572;48.110;19.838;2023-01-16T12:02:13;96177.66;;;4.57;80.68
70921;BME280;58572;48.110;19.838;2023-01-16T12:05:08;96229.31;;;4.83;81.93
70921;BME280;58572;48.110;19.838;2023-01-16T12:08:05;96223.69;;;5.03;81.37
70921;BME280;58572;48.110;19.838;2023-01-16T12:10:41;96217.41;;;4.89;81.54
70921;BME280;58572;48.110;19.838;2023-01-16T12:13:12;96205.59;;;4.85;81.78
70921;BME280;58572;48.110;19.838;2023-01-16T12:16:09;96201.50;;;4.69;82.12
70921;BME280;58572;48.110;19.838;2023-01-16T12:18:47;96198.03;;;4.87;82.13
70921;BME280;58572;48.110;19.838;2023-01-16T12:21:41;96190.31;;;4.57;82.88
70921;BME280;58572;48.110;19.838;2023-01-16T12:24:25;96187.00;;;5.07;81.53
70921;BME280;58572;48.110;19.838;2023-01-16T12:27:10;96177.03;;;5.08;80.87
70921;BME280;58572;48.110;19.838;2023-01-16T12:29:52;96168.63;;;4.72;82.44
70921;BME280;58572;48.110;19.838;2023-01-16T12:32:33;96165.66;;;4.92;81.83
70921;BME280;58572;48.110;19.838;2023-01-16T12:35:21;96157.72;;;4.82;82.52
70921;BME280;58572;48.110;19.838;2023-01-16T12:38:15;96159.97;;;4.75;82.66
70921;BME280;58572;48.110;19.838;2023-01-16T12:41:14;96155.50;;;5.08;81.60
70921;BME280;58572;48.110;19.838;2023-01-16T12:44:26;96154.91;;;5.11;80.79
70921;BME280;58572;48.110;19.838;2023-01-16T12:47:06;96143.47;;;5.00;81.74
70921;BME280;58572;48.110;19.838;2023-01-16T12:49:52;96143.91;;;5.07;81.62
70921;BME280;58572;48.110;19.838;2023-01-16T12:52:44;96143.34;;;5.10;81.17
70921;BME280;58572;48.110;19.838;2023-01-16T12:55:24;96148.56;;;4.83;81.69
70921;BME280;58572;48.110;19.838;2023-01-16T12:58:05;96041.53;;;3.90;83.18
70921;BME280;58572;48.110;19.838;2023-01-16T13:00:39;96137.94;;;5.10;81.08
70921;BME280;58572;48.110;19.838;2023-01-16T13:03:26;96133.28;;;4.97;81.35
70921;BME280;58572;48.110;19.838;2023-01-16T13:05:56;96138.59;;;4.84;82.25
70921;BME280;58572;48.110;19.838;2023-01-16T13:08:28;96122.88;;;4.91;81.35
70921;BME280;58572;48.110;19.838;2023-01-16T13:11:07;96120.19;;;5.09;81.17
70921;BME280;58572;48.110;19.838;2023-01-16T13:13:57;96077.81;;;4.59;81.78
70921;BME280;58572;48.110;19.838;2023-01-16T13:16:30;96108.81;;;4.75;82.52
70921;BME280;58572;48.110;19.838;2023-01-16T13:19:02;96029.44;;;4.54;81.17
70921;BME280;58572;48.110;19.838;2023-01-16T13:21:36;96094.41;;;5.03;81.31
70921;BME280;58572;48.110;19.838;2023-01-16T13:24:12;96092.66;;;5.12;80.92
70921;BME280;58572;48.110;19.838;2023-01-16T13:26:44;95965.13;;;4.14;80.50
70921;BME280;58572;48.110;19.838;2023-01-16T13:29:14;96066.75;;;4.41;81.44
70921;BME280;58572;48.110;19.838;2023-01-16T13:31:47;96091.00;;;4.79;81.29
70921;BME280;58572;48.110;19.838;2023-01-16T13:34:19;96085.09;;;4.77;81.73